Ponteareas, Spain
Current Conditions -  °F | °C
As of 8:30 AM on Friday 31 Oct 2014 (Local Time) from LEVX Reporting Station
Clear Clear  
Wind Chill: 64°   Ceiling: Unl
Heat Index: 64°   Visibility: 6mi
Dew Point: 52°   Wind: 7mph
Humidity: 64%   Direction: 230°SW
Pressure: 30.06"   Gusts: NA
Location:  42.18°N, 8.5°W
Report Text: LEVX 310730Z 23006KT CAVOK 18/11 Q1018 NOSIG
Loading
Personal Weather Stations






























Interactive Weather Map New forecast layout! Learn more

10-Day Weather Forecast

Advertisements
Track Severe Weather on mobile